Petros, Kentucky
Current Conditions -  °F | °C
As of 1:19 AM on Sunday 26 Oct 2014 (Local Time) from KBWG Reporting Station
Moderate Fog Moderate Fog  
Wind Chill: 55°   Ceiling: Unl
Heat Index: 55°   Visibility: 0.25mi
Dew Point: 53°   Wind: 0mph
Humidity: 93%   Direction: NA
Pressure: 30"   Gusts: NA
Location:  36.9519°N, 86.6076°W
Report Text: KBWG 260619Z AUTO 00000KT 1/4SM FG CLR 13/12 A3000 RMK AO2 T01280117
Loading
Personal Weather Stations






























Interactive Weather Map
Tropical Storm Tracking
New forecast layout! Learn more

10-Day Weather Forecast

Advertisements
Track Severe Weather on mobile